createdAt,value
2018-12-27T00:47:39.026Z,30.23
2018-12-27T00:50:05.503Z,28.50
2018-12-27T00:52:31.917Z,29.00
2018-12-27T00:54:58.608Z,29.40
2018-12-27T00:57:24.979Z,29.10
2018-12-27T00:59:51.396Z,29.70
2018-12-27T01:02:18.128Z,30.13
2018-12-27T01:04:44.538Z,30.10
2018-12-27T01:07:10.912Z,30.03
2018-12-27T01:09:37.388Z,28.60
2018-12-27T01:12:03.854Z,29.33
2018-12-27T01:14:30.243Z,27.90
2018-12-27T01:16:56.860Z,28.27
2018-12-27T01:19:23.239Z,29.90
2018-12-27T01:21:49.721Z,30.17
2018-12-27T01:24:16.415Z,27.80
2018-12-27T01:26:42.827Z,29.93
2018-12-27T01:29:09.241Z,27.60
2018-12-27T01:31:35.675Z,29.07
2018-12-27T01:34:02.096Z,27.90
2018-12-27T01:36:28.500Z,27.20
2018-12-27T01:38:55.115Z,27.17
2018-12-27T01:41:22.325Z,28.60
2018-12-27T01:43:48.736Z,27.97
2018-12-27T01:46:15.160Z,27.03
2018-12-27T01:48:41.599Z,26.70
2018-12-27T01:51:08.016Z,28.40
2018-12-27T01:53:54.313Z,27.10
2018-12-27T01:56:20.700Z,26.27
2018-12-27T01:58:47.121Z,27.00
2018-12-27T02:01:13.568Z,26.60
2018-12-27T02:03:39.977Z,25.97
2018-12-27T02:06:06.389Z,26.73
2018-12-27T02:08:33.103Z,25.37
2018-12-27T02:10:59.484Z,26.07
2018-12-27T02:13:25.863Z,28.07
2018-12-27T02:15:52.350Z,26.47
2018-12-27T02:18:18.918Z,25.40
2018-12-27T02:20:45.353Z,26.17
2018-12-27T02:23:11.794Z,25.03
2018-12-27T02:25:38.205Z,26.10
2018-12-27T02:28:04.613Z,23.40
2018-12-27T02:30:31.069Z,24.63
2018-12-27T02:32:57.451Z,24.70
2018-12-27T02:35:23.837Z,24.27
2018-12-27T02:37:50.265Z,23.83
2018-12-27T02:40:16.680Z,23.60
2018-12-27T02:42:43.118Z,23.77
2018-12-27T02:45:09.516Z,23.37
2018-12-27T02:47:35.905Z,23.30
2018-12-27T02:50:02.417Z,23.83
2018-12-27T02:52:28.827Z,23.10
2018-12-27T02:54:55.219Z,22.33
2018-12-27T02:57:21.603Z,23.70
2018-12-27T02:59:48.019Z,23.10
2018-12-27T03:02:14.400Z,21.57
2018-12-27T03:04:40.784Z,23.70
2018-12-27T03:07:07.555Z,23.90
2018-12-27T03:09:33.961Z,22.27
2018-12-27T03:12:00.344Z,24.27
2018-12-27T03:14:26.789Z,24.23
2018-12-27T03:16:53.281Z,25.60
2018-12-27T03:19:19.663Z,24.57
2018-12-27T03:21:46.168Z,23.20
2018-12-27T03:24:12.569Z,22.80
2018-12-27T03:26:38.951Z,20.60
2018-12-27T03:29:05.626Z,23.60
2018-12-27T03:31:32.004Z,21.80
2018-12-27T03:33:58.420Z,23.47
2018-12-27T03:36:25.123Z,22.50
2018-12-27T03:38:51.540Z,21.47
2018-12-27T03:41:17.919Z,21.20
2018-12-27T03:43:44.333Z,22.17
2018-12-27T03:46:10.705Z,21.57
2018-12-27T03:48:37.116Z,20.90
2018-12-27T03:51:03.828Z,22.60
2018-12-27T03:53:30.219Z,21.60
2018-12-27T03:55:56.643Z,21.67
2018-12-27T03:58:23.060Z,21.40
2018-12-27T04:00:49.515Z,20.20
2018-12-27T04:03:15.894Z,21.07
2018-12-27T04:05:42.318Z,20.80
2018-12-27T04:08:08.700Z,20.70
2018-12-27T04:10:35.080Z,20.47
2018-12-27T04:13:04.405Z,19.90
2018-12-27T04:15:30.791Z,18.73
2018-12-27T04:17:57.214Z,19.07
2018-12-27T04:20:23.640Z,20.17
2018-12-27T04:22:50.022Z,19.47
2018-12-27T04:25:16.537Z,19.93
2018-12-27T04:27:43.335Z,19.20
2018-12-27T04:30:09.740Z,20.17
2018-12-27T04:32:37.054Z,20.73
2018-12-27T04:35:03.460Z,19.83
2018-12-27T04:37:29.852Z,20.37
2018-12-27T04:39:56.265Z,21.33
2018-12-27T04:42:22.791Z,19.37
2018-12-27T04:44:49.182Z,19.20
2018-12-27T04:47:15.594Z,20.03
2018-12-27T04:49:42.027Z,17.83
2018-12-27T04:52:08.482Z,19.23
2018-12-27T04:54:34.985Z,19.90
2018-12-27T04:57:01.419Z,20.60
2018-12-27T04:59:27.828Z,18.97
2018-12-27T05:01:54.321Z,19.90
2018-12-27T05:04:20.978Z,18.40
2018-12-27T05:06:47.383Z,18.10
2018-12-27T05:09:13.797Z,16.17
2018-12-27T05:11:40.464Z,16.27
2018-12-27T05:14:06.846Z,17.80
2018-12-27T05:16:33.229Z,16.60
2018-12-27T05:18:59.890Z,17.40
2018-12-27T05:21:26.300Z,15.50
2018-12-27T05:23:52.683Z,16.50
2018-12-27T05:26:19.176Z,15.73
2018-12-27T05:28:45.559Z,17.07
2018-12-27T05:31:11.954Z,16.30
2018-12-27T05:33:38.648Z,15.47
2018-12-27T05:36:05.063Z,15.30
2018-12-27T05:38:31.444Z,14.63
2018-12-27T05:40:57.878Z,15.30
2018-12-27T05:43:24.259Z,15.03
2018-12-27T05:45:50.640Z,16.20
2018-12-27T05:48:17.360Z,15.70
2018-12-27T05:50:43.769Z,14.00
2018-12-27T05:53:10.196Z,15.80
2018-12-27T05:55:36.863Z,13.97
2018-12-27T05:58:03.252Z,15.77
2018-12-27T06:00:29.670Z,15.80
2018-12-27T06:02:56.292Z,15.97
2018-12-27T06:05:22.678Z,16.10
2018-12-27T06:07:49.060Z,16.23
2018-12-27T06:10:15.697Z,15.40
2018-12-27T06:12:42.172Z,15.73
2018-12-27T06:15:08.590Z,14.93
2018-12-27T06:17:34.988Z,15.37
2018-12-27T06:20:01.414Z,15.33
2018-12-27T06:22:27.791Z,15.10
2018-12-27T06:24:54.215Z,14.60
2018-12-27T06:27:20.631Z,13.70
2018-12-27T06:29:47.012Z,14.00
2018-12-27T06:32:13.467Z,14.00
2018-12-27T06:34:41.547Z,15.33
2018-12-27T06:37:08.292Z,14.37
2018-12-27T06:39:34.785Z,12.27
2018-12-27T06:42:01.220Z,14.10
2018-12-27T06:44:27.599Z,13.30
2018-12-27T06:46:54.188Z,15.53
2018-12-27T06:49:20.568Z,13.70
2018-12-27T06:51:46.992Z,14.40
2018-12-27T06:54:13.825Z,13.60
2018-12-27T06:56:40.250Z,13.30
2018-12-27T06:59:06.628Z,12.47
2018-12-27T07:01:33.035Z,12.70
2018-12-27T07:03:59.404Z,13.63
2018-12-27T07:06:25.836Z,13.50
2018-12-27T07:08:52.497Z,13.73
2018-12-27T07:11:18.933Z,13.53
2018-12-27T07:13:45.421Z,13.97
2018-12-27T07:16:11.883Z,14.87
2018-12-27T07:18:38.407Z,13.93
2018-12-27T07:21:04.864Z,14.23
2018-12-27T07:23:31.303Z,14.30
2018-12-27T07:25:57.717Z,13.53
2018-12-27T07:28:24.132Z,14.80
2018-12-27T07:30:50.873Z,14.63
2018-12-27T07:33:17.252Z,15.40
2018-12-27T07:35:43.635Z,15.37
2018-12-27T07:38:10.101Z,15.00
2018-12-27T07:40:36.484Z,13.73
2018-12-27T07:43:02.897Z,15.57
2018-12-27T07:45:29.325Z,14.90
2018-12-27T07:47:55.792Z,16.03
2018-12-27T07:50:22.209Z,16.13
2018-12-27T07:52:48.716Z,15.43
2018-12-27T07:55:15.180Z,16.77
2018-12-27T07:57:41.568Z,16.53
2018-12-27T08:00:08.187Z,16.60
2018-12-27T08:02:34.616Z,16.50
2018-12-27T08:05:04.115Z,15.10
2018-12-27T08:07:29.449Z,15.23
2018-12-27T08:09:55.858Z,19.43
2018-12-27T08:12:22.240Z,16.80
2018-12-27T08:14:48.640Z,20.17
2018-12-27T08:17:15.027Z,16.50
2018-12-27T08:19:41.436Z,16.30
2018-12-27T08:22:08.095Z,15.47
2018-12-27T08:24:34.580Z,16.37
2018-12-27T08:27:00.999Z,16.63
2018-12-27T08:29:27.408Z,17.63
2018-12-27T08:31:53.826Z,17.83
2018-12-27T08:34:20.232Z,16.43
2018-12-27T08:36:46.669Z,17.70
2018-12-27T08:39:13.048Z,18.23
2018-12-27T08:41:39.478Z,17.57
2018-12-27T08:44:05.900Z,18.00
2018-12-27T08:46:32.318Z,18.17
2018-12-27T08:48:58.700Z,18.97
2018-12-27T08:51:25.339Z,18.87
2018-12-27T08:53:51.717Z,18.30
2018-12-27T08:56:18.156Z,18.90
2018-12-27T08:58:44.819Z,20.03
2018-12-27T09:01:11.199Z,19.67
2018-12-27T09:03:37.583Z,19.57
2018-12-27T09:06:04.012Z,19.73
2018-12-27T09:08:30.421Z,17.70
2018-12-27T09:10:56.833Z,19.40
2018-12-27T09:13:23.256Z,19.43
2018-12-27T09:15:49.701Z,19.73
2018-12-27T09:18:16.131Z,18.47
2018-12-27T09:20:42.559Z,19.50
2018-12-27T09:23:09.036Z,18.33
2018-12-27T09:25:35.453Z,18.30
2018-12-27T09:28:02.079Z,19.17
2018-12-27T09:30:28.461Z,21.57
2018-12-27T09:32:54.896Z,21.10
2018-12-27T09:35:26.331Z,20.87
2018-12-27T09:37:49.588Z,22.50
2018-12-27T09:40:16.030Z,20.27
2018-12-27T09:42:42.762Z,21.00
2018-12-27T09:45:09.174Z,20.70
2018-12-27T09:47:35.576Z,20.40
2018-12-27T09:50:02.761Z,19.17
2018-12-27T09:52:29.135Z,19.23
2018-12-27T09:54:55.651Z,19.43
2018-12-27T09:57:22.526Z,18.97
2018-12-27T09:59:49.003Z,18.53
2018-12-27T10:02:15.390Z,18.27
2018-12-27T10:04:41.807Z,18.93
2018-12-27T10:07:08.235Z,18.13
2018-12-27T10:09:34.640Z,20.07
2018-12-27T10:12:01.059Z,20.50
2018-12-27T10:14:27.546Z,20.47
2018-12-27T10:16:53.923Z,19.10
2018-12-27T10:19:20.738Z,19.37
2018-12-27T10:21:47.241Z,19.77
2018-12-27T10:24:13.612Z,19.00
2018-12-27T10:26:40.011Z,18.90
2018-12-27T10:29:06.428Z,19.07
2018-12-27T10:31:32.855Z,19.40
2018-12-27T10:33:59.397Z,18.27
2018-12-27T10:36:25.805Z,18.93
2018-12-27T10:38:54.016Z,17.97
2018-12-27T10:41:20.751Z,18.73
2018-12-27T10:43:47.128Z,19.00
2018-12-27T10:46:13.568Z,19.70
2018-12-27T10:48:40.253Z,19.07
2018-12-27T10:51:06.634Z,19.20
2018-12-27T10:53:33.012Z,19.00
2018-12-27T10:55:59.417Z,18.97
2018-12-27T10:58:25.836Z,19.80
2018-12-27T11:00:52.242Z,19.70
2018-12-27T11:03:18.819Z,19.20
2018-12-27T11:05:48.543Z,19.07
2018-12-27T11:08:13.505Z,19.37
2018-12-27T11:10:39.915Z,18.43
2018-12-27T11:13:06.329Z,17.77
2018-12-27T11:15:32.712Z,18.97
2018-12-27T11:17:59.119Z,17.77
2018-12-27T11:20:25.505Z,16.97
2018-12-27T11:22:51.891Z,17.23
2018-12-27T11:25:18.603Z,17.57
2018-12-27T11:27:45.018Z,17.10
2018-12-27T11:30:11.397Z,15.37
2018-12-27T11:32:37.860Z,16.17
2018-12-27T11:35:04.276Z,17.90
2018-12-27T11:37:30.677Z,17.63
2018-12-27T11:39:57.095Z,17.60
2018-12-27T11:42:23.562Z,17.80
2018-12-27T11:44:50.054Z,17.70
2018-12-27T11:47:16.477Z,18.30
2018-12-27T11:49:42.905Z,26.03
2018-12-27T11:52:09.371Z,17.60
2018-12-27T11:54:35.812Z,16.73
2018-12-27T11:57:02.210Z,18.20
2018-12-27T11:59:28.615Z,19.00
2018-12-27T12:01:55.369Z,17.53
2018-12-27T12:04:21.881Z,21.33
2018-12-27T12:06:48.256Z,19.10
2018-12-27T12:09:14.953Z,15.23
2018-12-27T12:11:41.372Z,17.20
2018-12-27T12:14:07.747Z,16.77
2018-12-27T12:16:34.155Z,18.03
2018-12-27T12:19:00.568Z,21.07
2018-12-27T12:21:26.947Z,18.60
2018-12-27T12:23:53.424Z,17.40
2018-12-27T12:26:19.796Z,16.33
2018-12-27T12:28:46.213Z,16.13
2018-12-27T12:31:12.605Z,16.60
2018-12-27T12:33:38.987Z,18.27
2018-12-27T12:36:10.536Z,18.47
2018-12-27T12:38:33.700Z,19.20
2018-12-27T12:41:00.106Z,20.30
2018-12-27T12:43:26.579Z,19.60
2018-12-27T12:45:53.057Z,19.03
2018-12-27T12:48:19.437Z,16.87
2018-12-27T12:50:45.823Z,17.93
2018-12-27T12:53:12.249Z,16.77
2018-12-27T12:55:38.661Z,17.37
2018-12-27T12:58:05.069Z,16.80
2018-12-27T13:00:31.578Z,16.27
2018-12-27T13:02:57.959Z,17.60
2018-12-27T13:05:24.452Z,17.23
2018-12-27T13:07:50.910Z,17.50
2018-12-27T13:10:17.377Z,15.73
2018-12-27T13:12:43.875Z,15.30
2018-12-27T13:15:10.304Z,17.10
2018-12-27T13:17:36.717Z,16.97
2018-12-27T13:20:04.137Z,15.63
2018-12-27T13:22:30.539Z,18.10
2018-12-27T13:24:56.957Z,16.27
2018-12-27T13:27:23.335Z,15.60
2018-12-27T13:29:49.880Z,17.13
2018-12-27T13:32:16.296Z,17.40
2018-12-27T13:34:42.711Z,16.00
2018-12-27T13:37:09.325Z,16.00
2018-12-27T13:39:35.708Z,17.40
2018-12-27T13:42:02.132Z,16.00
2018-12-27T13:44:28.555Z,15.70
2018-12-27T13:46:54.960Z,17.20
2018-12-27T13:49:21.375Z,17.40
2018-12-27T13:51:47.951Z,16.30
2018-12-27T13:54:14.334Z,15.90
2018-12-27T13:56:40.723Z,18.37
2018-12-27T13:59:07.161Z,15.47
2018-12-27T14:01:33.605Z,17.40
2018-12-27T14:04:00.116Z,18.93
2018-12-27T14:06:32.714Z,17.80
2018-12-27T14:08:55.130Z,17.33
2018-12-27T14:11:21.563Z,16.23
2018-12-27T14:13:48.015Z,16.93
2018-12-27T14:16:14.414Z,17.27
2018-12-27T14:18:40.829Z,15.47
2018-12-27T14:21:07.261Z,17.90
2018-12-27T14:23:33.668Z,15.30
2018-12-27T14:26:00.077Z,16.50
2018-12-27T14:28:26.506Z,16.30
2018-12-27T14:30:52.950Z,17.17
2018-12-27T14:33:19.354Z,16.67
2018-12-27T14:35:45.777Z,16.40
2018-12-27T14:38:12.295Z,18.17
2018-12-27T14:40:38.793Z,19.40
2018-12-27T14:43:05.198Z,16.50
2018-12-27T14:45:31.578Z,18.83
2018-12-27T14:47:57.989Z,16.20
2018-12-27T14:50:24.428Z,17.37
2018-12-27T14:52:50.815Z,17.90
2018-12-27T14:55:17.208Z,17.80
2018-12-27T14:57:43.633Z,16.53
2018-12-27T15:00:10.249Z,19.00
2018-12-27T15:02:36.685Z,18.60
2018-12-27T15:05:03.683Z,18.70
2018-12-27T15:07:30.070Z,19.10
2018-12-27T15:09:56.489Z,17.97
2018-12-27T15:12:22.931Z,18.67
2018-12-27T15:14:49.353Z,20.73
2018-12-27T15:17:15.769Z,20.90
2018-12-27T15:19:42.188Z,18.70
2018-12-27T15:22:08.576Z,18.43
2018-12-27T15:24:34.960Z,18.90
2018-12-27T15:27:01.394Z,18.70
2018-12-27T15:29:27.790Z,18.87
2018-12-27T15:31:54.217Z,19.90
2018-12-27T15:34:20.651Z,19.70
2018-12-27T15:36:54.077Z,18.23
2018-12-27T15:39:15.392Z,19.00
2018-12-27T15:41:42.065Z,20.43
2018-12-27T15:44:08.444Z,19.30
2018-12-27T15:46:34.895Z,20.67
2018-12-27T15:49:01.359Z,20.27
2018-12-27T15:51:27.773Z,20.93
2018-12-27T15:53:54.227Z,22.30
2018-12-27T15:56:20.937Z,22.63
2018-12-27T15:58:47.345Z,18.63
2018-12-27T16:01:13.759Z,20.33
2018-12-27T16:03:40.392Z,20.80
2018-12-27T16:06:06.824Z,20.90
2018-12-27T16:08:33.200Z,23.03
2018-12-27T16:10:59.867Z,21.67
2018-12-27T16:13:26.255Z,19.87
2018-12-27T16:15:52.676Z,20.30
2018-12-27T16:18:19.213Z,21.10
2018-12-27T16:20:45.633Z,19.97
2018-12-27T16:23:12.149Z,21.00
2018-12-27T16:25:38.869Z,20.10
2018-12-27T16:28:05.263Z,20.27
2018-12-27T16:30:31.950Z,20.23
2018-12-27T16:32:58.536Z,26.87
2018-12-27T16:35:24.948Z,20.03
2018-12-27T16:37:51.360Z,20.40
2018-12-27T16:40:18.095Z,20.83
2018-12-27T16:42:44.518Z,21.60
2018-12-27T16:45:10.988Z,22.00
2018-12-27T16:47:37.421Z,23.77
2018-12-27T16:50:05.300Z,22.53
2018-12-27T16:52:31.686Z,21.00
2018-12-27T16:54:58.430Z,22.50
2018-12-27T16:57:24.885Z,21.37
2018-12-27T16:59:51.299Z,20.83
2018-12-27T17:02:17.869Z,21.07
2018-12-27T17:04:44.335Z,22.93
2018-12-27T17:07:15.998Z,21.43
2018-12-27T17:09:39.092Z,21.70
2018-12-27T17:12:05.529Z,21.50
2018-12-27T17:14:31.950Z,25.07
2018-12-27T17:16:58.382Z,24.23
2018-12-27T17:19:24.808Z,24.63
2018-12-27T17:21:51.244Z,23.87
2018-12-27T17:24:17.750Z,24.73
2018-12-27T17:26:44.132Z,24.97
2018-12-27T17:29:11.174Z,29.43
2018-12-27T17:31:37.639Z,27.77
2018-12-27T17:34:04.025Z,25.50
2018-12-27T17:36:30.475Z,22.63
2018-12-27T17:38:56.951Z,23.27
2018-12-27T17:41:23.366Z,21.67
2018-12-27T17:43:49.758Z,23.20
2018-12-27T17:46:16.241Z,22.60
2018-12-27T17:48:42.745Z,23.73
2018-12-27T17:51:09.161Z,21.57
2018-12-27T17:53:35.916Z,19.33
2018-12-27T17:56:02.312Z,19.77
2018-12-27T17:58:28.691Z,19.63
2018-12-27T18:00:55.151Z,21.43
2018-12-27T18:03:21.610Z,21.30
2018-12-27T18:05:48.045Z,21.50
2018-12-27T18:08:14.543Z,20.70
2018-12-27T18:10:41.008Z,20.83
2018-12-27T18:13:07.428Z,21.37
2018-12-27T18:15:34.135Z,20.40
2018-12-27T18:18:00.540Z,19.63
2018-12-27T18:20:26.922Z,21.13
2018-12-27T18:22:53.444Z,21.33
2018-12-27T18:25:19.848Z,21.87
2018-12-27T18:27:46.231Z,21.70
2018-12-27T18:30:12.879Z,21.90
2018-12-27T18:32:39.339Z,23.93
2018-12-27T18:35:06.223Z,22.70
2018-12-27T18:37:37.733Z,23.23
2018-12-27T18:40:00.944Z,23.60
2018-12-27T18:42:27.436Z,20.10
2018-12-27T18:44:53.896Z,22.87
2018-12-27T18:47:20.309Z,21.00
2018-12-27T18:49:46.719Z,22.27
2018-12-27T18:52:13.385Z,23.37
2018-12-27T18:54:39.760Z,29.60
2018-12-27T18:57:06.264Z,29.33
2018-12-27T18:59:32.959Z,26.43
2018-12-27T19:01:59.377Z,28.40
2018-12-27T19:04:25.840Z,23.27
2018-12-27T19:06:52.569Z,23.20
2018-12-27T19:09:18.948Z,25.50
2018-12-27T19:12:04.436Z,22.10
2018-12-27T19:14:30.851Z,19.33
2018-12-27T19:16:57.417Z,25.57
2018-12-27T19:19:24.099Z,20.00
2018-12-27T19:21:50.635Z,22.87
2018-12-27T19:24:17.146Z,20.73
2018-12-27T19:26:43.584Z,25.20
2018-12-27T19:29:10.043Z,19.57
2018-12-27T19:31:36.427Z,19.53
2018-12-27T19:34:02.898Z,21.00
2018-12-27T19:36:29.272Z,21.10
2018-12-27T19:38:55.679Z,18.87
2018-12-27T19:41:22.332Z,20.13
2018-12-27T19:43:48.777Z,19.27
2018-12-27T19:46:15.171Z,19.90
2018-12-27T19:48:41.600Z,21.63
2018-12-27T19:51:07.979Z,20.50
2018-12-27T19:53:34.368Z,22.43
2018-12-27T19:56:00.987Z,20.30
2018-12-27T19:58:27.447Z,23.60
2018-12-27T20:00:53.856Z,22.20
2018-12-27T20:03:20.560Z,22.30
2018-12-27T20:05:46.931Z,23.67
2018-12-27T20:08:13.433Z,24.00
2018-12-27T20:10:40.223Z,28.20
2018-12-27T20:13:06.602Z,22.53
2018-12-27T20:15:33.012Z,24.00
2018-12-27T20:17:59.723Z,23.70
2018-12-27T20:20:26.117Z,22.30
2018-12-27T20:22:52.500Z,21.87
2018-12-27T20:25:19.227Z,20.30
2018-12-27T20:27:45.679Z,22.00
2018-12-27T20:30:12.101Z,22.90
2018-12-27T20:32:38.752Z,21.90
2018-12-27T20:35:05.155Z,21.90
2018-12-27T20:37:31.648Z,22.30
2018-12-27T20:39:58.447Z,24.07
2018-12-27T20:42:24.831Z,22.20
2018-12-27T20:44:51.248Z,22.03
2018-12-27T20:47:17.691Z,23.00
2018-12-27T20:49:44.214Z,26.73
2018-12-27T20:52:10.727Z,24.67
2018-12-27T20:54:37.168Z,23.00
2018-12-27T20:57:03.600Z,22.67
2018-12-27T20:59:29.982Z,23.73
2018-12-27T21:01:56.673Z,25.30
2018-12-27T21:04:23.099Z,22.87
2018-12-27T21:06:49.522Z,23.00
2018-12-27T21:09:16.241Z,25.10
2018-12-27T21:11:42.647Z,22.53
2018-12-27T21:14:09.028Z,24.07
2018-12-27T21:16:35.543Z,22.37
2018-12-27T21:19:02.025Z,23.03
2018-12-27T21:21:28.536Z,21.67
2018-12-27T21:23:54.985Z,22.63
2018-12-27T21:26:21.393Z,21.70
2018-12-27T21:28:47.855Z,22.83
2018-12-27T21:31:14.577Z,22.70
2018-12-27T21:33:41.021Z,22.93
2018-12-27T21:36:07.438Z,22.07
2018-12-27T21:38:33.883Z,21.80
2018-12-27T21:41:00.320Z,21.73
2018-12-27T21:43:26.760Z,21.87
2018-12-27T21:45:53.517Z,21.67
2018-12-27T21:48:19.920Z,21.90
2018-12-27T21:50:46.485Z,21.37
2018-12-27T21:53:13.067Z,22.60
2018-12-27T21:55:39.866Z,24.13
2018-12-27T21:58:06.422Z,24.00
2018-12-27T22:00:32.920Z,23.53
2018-12-27T22:02:59.306Z,23.80
2018-12-27T22:05:25.792Z,23.70
2018-12-27T22:07:52.517Z,24.17
2018-12-27T22:10:18.937Z,23.90
2018-12-27T22:12:45.384Z,23.87
2018-12-27T22:15:11.925Z,23.50
2018-12-27T22:17:38.365Z,24.40
2018-12-27T22:20:04.782Z,24.70
2018-12-27T22:22:31.443Z,25.17
2018-12-27T22:24:57.815Z,23.17
2018-12-27T22:27:24.254Z,24.33
2018-12-27T22:29:50.752Z,24.97
2018-12-27T22:32:17.202Z,25.40
2018-12-27T22:34:43.636Z,25.73
2018-12-27T22:37:10.336Z,27.67
2018-12-27T22:39:36.947Z,25.27
2018-12-27T22:42:03.380Z,25.77
2018-12-27T22:44:30.039Z,25.70
2018-12-27T22:46:56.660Z,25.50
2018-12-27T22:49:23.184Z,26.67
2018-12-27T22:51:49.989Z,26.77
2018-12-27T22:54:16.871Z,27.80
2018-12-27T22:56:43.453Z,27.87
2018-12-27T22:59:09.864Z,26.20
2018-12-27T23:01:36.252Z,29.17
2018-12-27T23:04:02.701Z,27.87
2018-12-27T23:06:29.240Z,27.63
2018-12-27T23:08:55.621Z,26.80
2018-12-27T23:11:22.321Z,29.03
2018-12-27T23:13:48.774Z,27.63
2018-12-27T23:16:15.213Z,27.27
2018-12-27T23:18:41.709Z,27.13
2018-12-27T23:21:08.149Z,27.53
2018-12-27T23:23:34.561Z,27.90
2018-12-27T23:26:00.973Z,26.90
2018-12-27T23:28:27.804Z,27.90
2018-12-27T23:30:54.281Z,30.07
2018-12-27T23:33:20.773Z,28.07
2018-12-27T23:35:47.468Z,28.73
2018-12-27T23:38:13.864Z,27.93
2018-12-27T23:40:40.256Z,25.67
2018-12-27T23:43:06.727Z,27.07
2018-12-27T23:45:33.268Z,31.60
2018-12-27T23:47:59.680Z,30.73
2018-12-27T23:50:26.408Z,29.37
2018-12-27T23:52:52.798Z,30.10
2018-12-27T23:55:19.320Z,34.13
2018-12-27T23:57:45.753Z,32.30
